Cairns AAF (Fort Rucker) Air Field
KOZR : rendu visible

Aérodrome :











RETROUVEZ-NOUS SUR...

 
LOGIN :

S'inscrire | Disclaimer

   EN    FR    IT 

 









Légende :    VFR   VFR Marginal   IFR   IFR Intensif   IFR Très Intensif
Visi : 
Plafond : 
>= 8 km
>= 3000ft
5 à 8 km
1000 à 3000 ft
1500m à 5 km
500 à 1000 ft
800 à 1500m
200 à 500 ft
< 800m
< 200 ft
Symboles :   Orages  Brouillard  Fortes neiges  Fortes précipitations  Vent > 20 kt






- Altitude de l'aérodrome : 301 ft


KOZR - Cairns AAF (Fort Rucker) Air Field

DERNIER METAR :
  • 100956Z AUTO 30004KT 10SM BKN095 OVC120 17/15 A2987 RMK AO2 RAE08DZB08E09RAB09E11DZB11E23 SLP115 P0001 T01650154

METARs EXPIRÉS :
  • 100923Z AUTO 00000KT 10SM OVC100 17/15 A2986 RMK AO2 RAE08DZB08E09RAB09E11DZB11E23 SLP111
  • 100856Z AUTO 30003KT 10SM -RA OVC095 17/16 A2986 RMK AO2 SLP111 P0003 60006 T01660155 50020
  • 100850Z AUTO 00000KT 10SM -RA OVC095 17/16 A2986 RMK AO2 SLP111
  • 100756Z AUTO 29005KT 10SM -RA BKN090 OVC110 17/15 A2988 RMK AO2 RAE00DZB00E04DZB33E36RAB36 SLP118 P0001 T01680153
  • 100744Z AUTO 00000KT 10SM -RA SCT090 OVC110 17/15 A2986 RMK AO2 RAE00DZB00E04DZB33E36RAB36 PRESRR SLP111
  • 100733Z AUTO 33006KT 10SM -DZ FEW090 OVC110 17/15 A2984 RMK AO2 RAE00DZB00E04DZB33 SLP104

TAF TAF KOZR
Valide du 10 à 08h jusqu'au 11 à 14h UTC


100800Z 1008/1114 32012KT 8000 -SHRA VCTS BKN045CB QNH2980INS
BECMG 1011/1012 35009KT 9999 NSW FEW035 QNH2993INS
BECMG 1015/1016 36020G25KT 9999 FEW060 510013 QNH3004INS
BECMG 1016/1017 35015G20KT 9999 FEW070 510013 QNH3000INS
BECMG 1023/1024 VRB06KT 9999 FEW230 QNH3003INS TX25/1021Z TN12/1011Z



MET'MAP, la Météo Aéronautique d'un coup d'oeil ! - Copyright ORBIFLY Décembre 2007 - Disclaimer

ORBIFLY MET'MAP TEAM :

Programmation & Développement : Alexandra Zaïnal
Sur une idée originale de : Baudouin d'Aumeries
Assistance à la programmation : Marc-Olivier Méhu
Soutien technique & logistique : Manuel Goepfert

Contact : metmap@orbifly.com




SOURCES & CREDITS :

   NOAA       Earth
Advisory